createdAt,value
2022-07-28T00:03:13.667Z,15.62
2022-07-28T00:08:15.277Z,15.51
2022-07-28T00:13:16.837Z,15.27
2022-07-28T00:18:18.482Z,15.18
2022-07-28T00:23:20.064Z,15.23
2022-07-28T00:28:21.627Z,15.39
2022-07-28T00:33:23.698Z,15.38
2022-07-28T00:38:25.379Z,15.46
2022-07-28T00:43:28.015Z,15.54
2022-07-28T00:48:29.587Z,15.64
2022-07-28T00:53:31.338Z,15.79
2022-07-28T00:58:33.529Z,15.70
2022-07-28T01:03:40.344Z,15.62
2022-07-28T01:09:00.428Z,15.51
2022-07-28T01:14:09.614Z,15.08
2022-07-28T01:19:19.642Z,15.03
2022-07-28T01:24:33.635Z,15.12
2022-07-28T01:30:00.122Z,15.06
2022-07-28T01:35:16.474Z,15.07
2022-07-28T01:40:22.439Z,15.08
2022-07-28T01:45:25.854Z,15.16
2022-07-28T01:50:29.817Z,15.22
2022-07-28T01:55:33.155Z,15.14
2022-07-28T02:00:36.245Z,15.04
2022-07-28T02:05:40.787Z,14.75
2022-07-28T02:10:44.074Z,14.57
2022-07-28T02:15:46.605Z,14.43
2022-07-28T02:20:49.549Z,14.15
2022-07-28T02:25:52.915Z,13.82
2022-07-28T02:31:01.881Z,13.74
2022-07-28T02:36:14.239Z,13.81
2022-07-28T02:41:28.187Z,13.74
2022-07-28T02:46:37.455Z,13.65
2022-07-28T02:51:41.912Z,13.64
2022-07-28T02:56:53.446Z,13.58
2022-07-28T03:01:56.969Z,13.75
2022-07-28T03:06:58.609Z,13.89
2022-07-28T03:12:00.195Z,13.99
2022-07-28T03:17:01.841Z,14.11
2022-07-28T03:22:04.420Z,14.10
2022-07-28T03:27:15.212Z,14.08
2022-07-28T03:32:19.938Z,13.94
2022-07-28T03:37:28.089Z,13.84
2022-07-28T03:42:30.755Z,13.43
2022-07-28T03:47:32.426Z,13.11
2022-07-28T03:52:33.983Z,13.06
2022-07-28T03:57:35.663Z,13.12
2022-07-28T04:02:37.358Z,13.33
2022-07-28T04:07:39.917Z,13.55
2022-07-28T04:12:56.210Z,13.77
2022-07-28T04:17:58.633Z,13.94
2022-07-28T04:23:00.228Z,14.06
2022-07-28T04:28:01.828Z,14.08
2022-07-28T04:33:07.141Z,14.08
2022-07-28T04:38:08.743Z,14.04
2022-07-28T04:43:10.320Z,14.01
2022-07-28T04:48:12.721Z,14.27
2022-07-28T04:53:14.344Z,14.47
2022-07-28T04:58:16.020Z,14.75
2022-07-28T05:03:20.394Z,14.96
2022-07-28T05:08:26.237Z,15.18
2022-07-28T05:13:33.742Z,15.50
2022-07-28T05:18:35.852Z,16.05
2022-07-28T05:23:37.454Z,16.35
2022-07-28T05:28:39.028Z,16.48
2022-07-28T05:33:40.615Z,16.39
2022-07-28T05:38:42.796Z,16.63
2022-07-28T05:43:44.429Z,16.66
2022-07-28T05:48:46.561Z,16.66
2022-07-28T05:53:48.161Z,16.70
2022-07-28T05:58:49.826Z,17.02
2022-07-28T06:04:10.014Z,17.17
2022-07-28T06:09:11.906Z,17.83
2022-07-28T06:14:13.668Z,19.29
2022-07-28T06:19:15.359Z,20.83
2022-07-28T06:24:17.185Z,22.09
2022-07-28T06:29:19.037Z,22.01
2022-07-28T06:34:20.702Z,22.01
2022-07-28T06:39:24.665Z,22.84
2022-07-28T06:44:37.633Z,21.88
2022-07-28T06:49:47.846Z,21.24
2022-07-28T06:54:49.815Z,21.55
2022-07-28T06:59:51.436Z,21.82
2022-07-28T07:04:53.044Z,22.12
2022-07-28T07:09:54.628Z,22.13
2022-07-28T07:14:56.210Z,22.71
2022-07-28T07:19:57.801Z,22.15
2022-07-28T07:25:07.859Z,22.59
2022-07-28T07:30:10.384Z,23.47
2022-07-28T07:35:12.282Z,24.26
2022-07-28T07:40:13.904Z,24.09
2022-07-28T07:45:15.466Z,25.96
2022-07-28T07:50:17.019Z,23.46
2022-07-28T07:55:18.766Z,25.61
2022-07-28T08:00:28.979Z,25.70
2022-07-28T08:05:34.906Z,25.12
2022-07-28T08:10:38.823Z,24.53
2022-07-28T08:15:40.404Z,26.51
2022-07-28T08:20:42.006Z,26.77
2022-07-28T08:25:44.154Z,26.54
2022-07-28T08:30:45.753Z,28.14
2022-07-28T08:35:48.532Z,27.30
2022-07-28T08:40:53.400Z,28.51
2022-07-28T08:45:58.510Z,26.49
2022-07-28T08:51:11.242Z,26.68
2022-07-28T08:56:15.288Z,27.68
2022-07-28T09:01:17.504Z,29.19
2022-07-28T09:06:21.658Z,28.03
2022-07-28T09:11:28.178Z,28.86
2022-07-28T09:16:30.234Z,29.59
2022-07-28T09:21:32.192Z,29.16
2022-07-28T09:26:33.852Z,29.02
2022-07-28T09:31:35.495Z,29.58
2022-07-28T09:36:39.905Z,29.03
2022-07-28T09:41:53.946Z,30.36
2022-07-28T09:46:56.701Z,30.60
2022-07-28T09:52:03.207Z,30.18
2022-07-28T09:57:09.906Z,30.40
2022-07-28T10:02:11.800Z,29.36
2022-07-28T10:07:14.328Z,31.08
2022-07-28T10:12:23.387Z,32.19
2022-07-28T10:17:43.100Z,29.67
2022-07-28T10:22:44.735Z,29.86
2022-07-28T10:27:48.459Z,30.88
2022-07-28T10:32:52.559Z,28.87
2022-07-28T10:38:14.072Z,29.41
2022-07-28T10:43:15.738Z,29.14
2022-07-28T10:48:17.497Z,29.71
2022-07-28T10:53:48.039Z,30.84
2022-07-28T10:59:20.046Z,29.47
2022-07-28T11:04:45.606Z,29.84
2022-07-28T11:09:47.436Z,31.04
2022-07-28T11:14:49.147Z,30.08
2022-07-28T11:20:24.588Z,30.24
2022-07-28T11:25:19.483Z,30.28
2022-07-28T11:30:26.009Z,30.89
2022-07-28T11:35:28.785Z,31.01
2022-07-28T11:40:38.781Z,32.08
2022-07-28T11:45:44.408Z,29.11
2022-07-28T11:51:04.158Z,30.24
2022-07-28T11:56:11.457Z,30.60
2022-07-28T12:01:17.503Z,32.11
2022-07-28T12:06:28.637Z,33.40
2022-07-28T12:11:35.818Z,33.12
2022-07-28T12:16:39.749Z,28.73
2022-07-28T12:21:55.386Z,28.54
2022-07-28T12:26:58.953Z,29.78
2022-07-28T12:32:03.498Z,30.18
2022-07-28T12:37:07.318Z,30.38
2022-07-28T12:42:12.450Z,29.47
2022-07-28T12:47:15.846Z,29.15
2022-07-28T12:52:24.887Z,28.89
2022-07-28T12:57:43.286Z,29.21
2022-07-28T13:02:51.658Z,30.86
2022-07-28T13:08:04.991Z,30.63
2022-07-28T13:13:07.613Z,31.62
2022-07-28T13:18:09.318Z,32.59
2022-07-28T13:23:10.866Z,33.60
2022-07-28T13:28:41.784Z,33.55
2022-07-28T13:33:43.329Z,30.55
2022-07-28T13:38:44.872Z,30.63
2022-07-28T13:43:48.242Z,30.31
2022-07-28T13:48:57.416Z,30.33
2022-07-28T13:54:00.734Z,30.15
2022-07-28T13:59:02.351Z,29.31
2022-07-28T14:04:04.286Z,29.44
2022-07-28T14:09:05.831Z,29.27
2022-07-28T14:14:07.753Z,29.92
2022-07-28T14:19:14.364Z,29.85
2022-07-28T14:24:17.789Z,29.89
2022-07-28T14:29:19.740Z,30.63
2022-07-28T14:34:21.279Z,30.64
2022-07-28T14:39:26.841Z,30.83
2022-07-28T14:44:29.686Z,30.15
2022-07-28T14:49:31.354Z,30.21
2022-07-28T14:54:33.719Z,29.80
2022-07-28T14:59:35.294Z,30.36
2022-07-28T15:04:37.459Z,30.16
2022-07-28T15:09:42.820Z,31.44
2022-07-28T15:14:46.787Z,31.20
2022-07-28T15:19:48.339Z,32.32
2022-07-28T15:24:50.347Z,31.45
2022-07-28T15:29:52.491Z,30.53
2022-07-28T15:34:54.246Z,31.14
2022-07-28T15:39:55.822Z,31.23
2022-07-28T15:45:01.041Z,30.42
2022-07-28T15:50:03.260Z,30.70
2022-07-28T15:55:05.340Z,30.62
2022-07-28T16:00:07.916Z,30.48
2022-07-28T16:05:09.641Z,30.45
2022-07-28T16:10:11.223Z,30.37
2022-07-28T16:15:12.804Z,29.70
2022-07-28T16:20:14.431Z,29.88
2022-07-28T16:25:16.451Z,29.63
2022-07-28T16:30:18.859Z,29.57
2022-07-28T16:35:20.462Z,29.11
2022-07-28T16:40:22.037Z,29.01
2022-07-28T16:45:23.803Z,28.14
2022-07-28T16:50:33.278Z,28.21
2022-07-28T16:55:35.040Z,28.39
2022-07-28T17:00:36.779Z,28.46
2022-07-28T17:05:38.716Z,28.02
2022-07-28T17:10:40.557Z,27.45
2022-07-28T17:15:49.666Z,27.20
2022-07-28T17:20:51.603Z,27.51
2022-07-28T17:31:14.916Z,27.36
2022-07-28T17:36:16.731Z,27.06
2022-07-28T17:41:18.280Z,26.64
2022-07-28T17:46:21.157Z,26.82
2022-07-28T17:51:23.159Z,26.76
2022-07-28T17:56:24.975Z,26.46
2022-07-28T18:01:28.108Z,26.70
2022-07-28T18:06:34.185Z,26.17
2022-07-28T18:11:56.619Z,26.18
2022-07-28T18:16:59.435Z,26.11
2022-07-28T18:22:01.038Z,26.07
2022-07-28T18:27:02.735Z,26.08
2022-07-28T18:32:04.616Z,25.99
2022-07-28T18:37:06.261Z,26.02
2022-07-28T18:42:07.839Z,25.90
2022-07-28T18:47:09.589Z,25.82
2022-07-28T18:52:11.188Z,25.76
2022-07-28T18:57:12.805Z,25.72
2022-07-28T19:02:14.660Z,25.54
2022-07-28T19:07:16.606Z,25.44
2022-07-28T19:12:18.565Z,25.40
2022-07-28T19:17:25.721Z,25.28
2022-07-28T19:22:27.766Z,25.19
2022-07-28T19:27:30.698Z,25.06
2022-07-28T19:32:32.520Z,25.02
2022-07-28T19:37:34.063Z,24.93
2022-07-28T19:42:35.683Z,24.89
2022-07-28T19:47:37.340Z,24.82
2022-07-28T19:52:39.008Z,24.65
2022-07-28T19:57:40.901Z,24.60
2022-07-28T20:02:42.854Z,24.65
2022-07-28T20:07:44.497Z,24.47
2022-07-28T20:12:46.238Z,24.49
2022-07-28T20:17:48.031Z,24.41
2022-07-28T20:22:49.656Z,24.32
2022-07-28T20:27:51.771Z,24.24
2022-07-28T20:32:53.385Z,24.08
2022-07-28T20:37:54.952Z,23.98
2022-07-28T20:42:56.523Z,23.90
2022-07-28T20:47:58.079Z,23.86
2022-07-28T20:52:59.687Z,23.77
2022-07-28T20:58:08.772Z,23.55
2022-07-28T21:03:10.332Z,23.41
2022-07-28T21:08:16.288Z,23.37
2022-07-28T21:13:18.842Z,23.28
2022-07-28T21:18:20.386Z,23.41
2022-07-28T21:23:21.987Z,23.22
2022-07-28T21:28:23.553Z,23.15
2022-07-28T21:33:25.141Z,22.64
2022-07-28T21:38:26.815Z,22.27
2022-07-28T21:43:28.383Z,22.11
2022-07-28T21:48:32.751Z,21.97
2022-07-28T21:53:34.694Z,21.88
2022-07-28T21:58:36.446Z,21.88
2022-07-28T22:03:39.441Z,21.75
2022-07-28T22:08:41.525Z,21.65
2022-07-28T22:13:43.062Z,21.58
2022-07-28T22:18:44.629Z,21.62
2022-07-28T22:23:46.169Z,21.72
2022-07-28T22:28:47.863Z,21.69
2022-07-28T22:33:49.436Z,21.68
2022-07-28T22:38:50.987Z,21.83
2022-07-28T22:43:52.500Z,21.60
2022-07-28T22:48:54.304Z,21.46
2022-07-28T22:53:55.974Z,21.35
2022-07-28T22:58:57.496Z,21.30
2022-07-28T23:03:59.160Z,21.40
2022-07-28T23:09:01.308Z,21.43
2022-07-28T23:14:02.938Z,21.43
2022-07-28T23:19:04.657Z,21.30
2022-07-28T23:24:06.854Z,21.17
2022-07-28T23:29:08.685Z,21.05
2022-07-28T23:34:10.277Z,21.04
2022-07-28T23:39:11.838Z,21.13
2022-07-28T23:44:13.695Z,21.14
2022-07-28T23:49:15.567Z,21.12
2022-07-28T23:54:17.636Z,21.08
2022-07-28T23:59:19.465Z,21.11
